<?xml version="1.0" encoding="UTF-8" standalone="no" ?>
<gpx xmlns="http://www.topografix.com/GPX/1/1" xmlns:xsi="http://www.w3.org/2001/XMLSchema-instance" xsi:schemaLocation="http://www.topografix.com/GPX/1/1 http://www.topografix.com/GPX/1/1/gpx.xsd" version="1.1" creator="VisuGPX - https://www.visugpx.com">
  <metadata>
    <name>Saint Louis</name>
  </metadata>
  <trk>
    <name><![CDATA[Petit Camarque a Saint-Louis]]></name>
    <extensions>
      <line xmlns="http://www.topografix.com/GPX/gpx_style/0/2">
        <color>0000FF</color>
        <width>4</width>
      </line>
    </extensions>
    <trkseg>
      <trkpt lat="47.63709" lon="7.52911">
        <ele>237</ele>
        <time>2025-05-06T11:03:25.238Z</time>
      </trkpt>
      <trkpt lat="47.63696" lon="7.52913">
        <ele>236.7</ele>
        <time>2025-05-06T11:03:40.199Z</time>
      </trkpt>
      <trkpt lat="47.63684" lon="7.52929">
        <ele>236.4</ele>
        <time>2025-05-06T11:03:58.652Z</time>
      </trkpt>
      <trkpt lat="47.63673" lon="7.52937">
        <ele>236.1</ele>
        <time>2025-05-06T11:04:12.666Z</time>
      </trkpt>
      <trkpt lat="47.63654" lon="7.52953">
        <ele>235.9</ele>
        <time>2025-05-06T11:04:37.643Z</time>
      </trkpt>
      <trkpt lat="47.63632" lon="7.5297">
        <ele>236</ele>
        <time>2025-05-06T11:05:06.022Z</time>
      </trkpt>
      <trkpt lat="47.63624" lon="7.52978">
        <ele>236.1</ele>
        <time>2025-05-06T11:05:17.051Z</time>
      </trkpt>
      <trkpt lat="47.63616" lon="7.52995">
        <ele>236.5</ele>
        <time>2025-05-06T11:05:33.033Z</time>
      </trkpt>
      <trkpt lat="47.63602" lon="7.53007">
        <ele>236.8</ele>
        <time>2025-05-06T11:05:51.525Z</time>
      </trkpt>
      <trkpt lat="47.63576" lon="7.53029">
        <ele>236.9</ele>
        <time>2025-05-06T11:06:25.761Z</time>
      </trkpt>
      <trkpt lat="47.63551" lon="7.53052">
        <ele>236.9</ele>
        <time>2025-05-06T11:06:59.398Z</time>
      </trkpt>
      <trkpt lat="47.63525" lon="7.53077">
        <ele>236.9</ele>
        <time>2025-05-06T11:07:34.829Z</time>
      </trkpt>
      <trkpt lat="47.63499" lon="7.53109">
        <ele>236.4</ele>
        <time>2025-05-06T11:08:13.468Z</time>
      </trkpt>
      <trkpt lat="47.63481" lon="7.53126">
        <ele>236.1</ele>
        <time>2025-05-06T11:08:37.875Z</time>
      </trkpt>
      <trkpt lat="47.63459" lon="7.53149">
        <ele>236.1</ele>
        <time>2025-05-06T11:09:08.649Z</time>
      </trkpt>
      <trkpt lat="47.63423" lon="7.53181">
        <ele>236.7</ele>
        <time>2025-05-06T11:09:56.657Z</time>
      </trkpt>
      <trkpt lat="47.63399" lon="7.53204">
        <ele>236.7</ele>
        <time>2025-05-06T11:10:29.338Z</time>
      </trkpt>
      <trkpt lat="47.63376" lon="7.53237">
        <ele>237</ele>
        <time>2025-05-06T11:11:05.925Z</time>
      </trkpt>
      <trkpt lat="47.63341" lon="7.53271">
        <ele>237.8</ele>
        <time>2025-05-06T11:11:53.762Z</time>
      </trkpt>
      <trkpt lat="47.63304" lon="7.53302">
        <ele>237.9</ele>
        <time>2025-05-06T11:12:42.378Z</time>
      </trkpt>
      <trkpt lat="47.63267" lon="7.53342">
        <ele>237.9</ele>
        <time>2025-05-06T11:13:34.732Z</time>
      </trkpt>
      <trkpt lat="47.6324" lon="7.53368">
        <ele>237.2</ele>
        <time>2025-05-06T11:14:11.540Z</time>
      </trkpt>
      <trkpt lat="47.63218" lon="7.53383">
        <ele>237.1</ele>
        <time>2025-05-06T11:14:39.238Z</time>
      </trkpt>
      <trkpt lat="47.63178" lon="7.53424">
        <ele>237.7</ele>
        <time>2025-05-06T11:15:34.844Z</time>
      </trkpt>
      <trkpt lat="47.63136" lon="7.53464">
        <ele>238.2</ele>
        <time>2025-05-06T11:16:31.917Z</time>
      </trkpt>
      <trkpt lat="47.63109" lon="7.5349">
        <ele>238.6</ele>
        <time>2025-05-06T11:17:08.739Z</time>
      </trkpt>
      <trkpt lat="47.6307" lon="7.53525">
        <ele>238.8</ele>
        <time>2025-05-06T11:18:00.861Z</time>
      </trkpt>
      <trkpt lat="47.63029" lon="7.53566">
        <ele>239.2</ele>
        <time>2025-05-06T11:18:57.416Z</time>
      </trkpt>
      <trkpt lat="47.62977" lon="7.53621">
        <ele>239.3</ele>
        <time>2025-05-06T11:20:10.454Z</time>
      </trkpt>
      <trkpt lat="47.6296" lon="7.53613">
        <ele>239.6</ele>
        <time>2025-05-06T11:20:30.851Z</time>
      </trkpt>
      <trkpt lat="47.62941" lon="7.53583">
        <ele>240</ele>
        <time>2025-05-06T11:21:02.584Z</time>
      </trkpt>
      <trkpt lat="47.62917" lon="7.53609">
        <ele>240</ele>
        <time>2025-05-06T11:21:36.576Z</time>
      </trkpt>
      <trkpt lat="47.62897" lon="7.5363">
        <ele>239.8</ele>
        <time>2025-05-06T11:22:04.601Z</time>
      </trkpt>
      <trkpt lat="47.62865" lon="7.53652">
        <ele>239.4</ele>
        <time>2025-05-06T11:22:44.940Z</time>
      </trkpt>
      <trkpt lat="47.62837" lon="7.53682">
        <ele>239</ele>
        <time>2025-05-06T11:23:24.440Z</time>
      </trkpt>
      <trkpt lat="47.62797" lon="7.53706">
        <ele>239</ele>
        <time>2025-05-06T11:24:13.783Z</time>
      </trkpt>
      <trkpt lat="47.62772" lon="7.5373">
        <ele>238.6</ele>
        <time>2025-05-06T11:24:47.854Z</time>
      </trkpt>
      <trkpt lat="47.62765" lon="7.53752">
        <ele>238.2</ele>
        <time>2025-05-06T11:25:06.604Z</time>
      </trkpt>
      <trkpt lat="47.62743" lon="7.53774">
        <ele>238.1</ele>
        <time>2025-05-06T11:25:36.962Z</time>
      </trkpt>
      <trkpt lat="47.62717" lon="7.53801">
        <ele>238.6</ele>
        <time>2025-05-06T11:26:13.258Z</time>
      </trkpt>
      <trkpt lat="47.62709" lon="7.5382">
        <ele>238.9</ele>
        <time>2025-05-06T11:26:30.534Z</time>
      </trkpt>
      <trkpt lat="47.627" lon="7.53844">
        <ele>239.1</ele>
        <time>2025-05-06T11:26:51.699Z</time>
      </trkpt>
      <trkpt lat="47.62701" lon="7.53867">
        <ele>238.8</ele>
        <time>2025-05-06T11:27:09.467Z</time>
      </trkpt>
      <trkpt lat="47.62679" lon="7.53888">
        <ele>239.5</ele>
        <time>2025-05-06T11:27:39.391Z</time>
      </trkpt>
      <trkpt lat="47.62662" lon="7.53902">
        <ele>239.9</ele>
        <time>2025-05-06T11:28:01.630Z</time>
      </trkpt>
      <trkpt lat="47.62691" lon="7.53888">
        <ele>239</ele>
        <time>2025-05-06T11:28:36.523Z</time>
      </trkpt>
      <trkpt lat="47.62707" lon="7.53889">
        <ele>238.4</ele>
        <time>2025-05-06T11:28:54.601Z</time>
      </trkpt>
      <trkpt lat="47.62679" lon="7.53914">
        <ele>239.4</ele>
        <time>2025-05-06T11:29:31.949Z</time>
      </trkpt>
      <trkpt lat="47.62649" lon="7.53944">
        <ele>239.3</ele>
        <time>2025-05-06T11:30:13.329Z</time>
      </trkpt>
      <trkpt lat="47.62608" lon="7.53986">
        <ele>239.4</ele>
        <time>2025-05-06T11:31:10.320Z</time>
      </trkpt>
      <trkpt lat="47.62576" lon="7.54015">
        <ele>239.4</ele>
        <time>2025-05-06T11:31:53.192Z</time>
      </trkpt>
      <trkpt lat="47.62553" lon="7.54037">
        <ele>238.4</ele>
        <time>2025-05-06T11:32:24.507Z</time>
      </trkpt>
      <trkpt lat="47.62545" lon="7.54024">
        <ele>238.3</ele>
        <time>2025-05-06T11:32:38.082Z</time>
      </trkpt>
      <trkpt lat="47.62522" lon="7.53983">
        <ele>237.6</ele>
        <time>2025-05-06T11:33:19.433Z</time>
      </trkpt>
      <trkpt lat="47.62505" lon="7.5395">
        <ele>236.6</ele>
        <time>2025-05-06T11:33:51.380Z</time>
      </trkpt>
      <trkpt lat="47.62497" lon="7.53921">
        <ele>236.1</ele>
        <time>2025-05-06T11:34:15.467Z</time>
      </trkpt>
      <trkpt lat="47.6248" lon="7.53878">
        <ele>237.3</ele>
        <time>2025-05-06T11:34:53.838Z</time>
      </trkpt>
      <trkpt lat="47.62466" lon="7.53864">
        <ele>237.8</ele>
        <time>2025-05-06T11:35:13.152Z</time>
      </trkpt>
      <trkpt lat="47.62459" lon="7.53879">
        <ele>237.7</ele>
        <time>2025-05-06T11:35:27.223Z</time>
      </trkpt>
      <trkpt lat="47.62452" lon="7.53897">
        <ele>237.5</ele>
        <time>2025-05-06T11:35:43.241Z</time>
      </trkpt>
      <trkpt lat="47.62448" lon="7.53871">
        <ele>238</ele>
        <time>2025-05-06T11:36:03.808Z</time>
      </trkpt>
      <trkpt lat="47.62427" lon="7.53864">
        <ele>238.5</ele>
        <time>2025-05-06T11:36:28.436Z</time>
      </trkpt>
      <trkpt lat="47.62407" lon="7.53855">
        <ele>239.1</ele>
        <time>2025-05-06T11:36:52.348Z</time>
      </trkpt>
      <trkpt lat="47.62384" lon="7.53855">
        <ele>240</ele>
        <time>2025-05-06T11:37:18.670Z</time>
      </trkpt>
      <trkpt lat="47.62369" lon="7.53842">
        <ele>240.7</ele>
        <time>2025-05-06T11:37:38.550Z</time>
      </trkpt>
      <trkpt lat="47.62364" lon="7.53812">
        <ele>240.1</ele>
        <time>2025-05-06T11:38:02.384Z</time>
      </trkpt>
      <trkpt lat="47.62362" lon="7.53763">
        <ele>238.5</ele>
        <time>2025-05-06T11:38:40.264Z</time>
      </trkpt>
      <trkpt lat="47.62351" lon="7.53704">
        <ele>238</ele>
        <time>2025-05-06T11:39:27.449Z</time>
      </trkpt>
      <trkpt lat="47.6234" lon="7.53688">
        <ele>238</ele>
        <time>2025-05-06T11:39:45.070Z</time>
      </trkpt>
      <trkpt lat="47.62329" lon="7.53672">
        <ele>238</ele>
        <time>2025-05-06T11:40:02.695Z</time>
      </trkpt>
      <trkpt lat="47.62317" lon="7.53684">
        <ele>238.1</ele>
        <time>2025-05-06T11:40:19.234Z</time>
      </trkpt>
      <trkpt lat="47.62323" lon="7.53667">
        <ele>238.1</ele>
        <time>2025-05-06T11:40:34.018Z</time>
      </trkpt>
      <trkpt lat="47.62314" lon="7.53656">
        <ele>238.3</ele>
        <time>2025-05-06T11:40:47.341Z</time>
      </trkpt>
      <trkpt lat="47.62301" lon="7.53633">
        <ele>238.5</ele>
        <time>2025-05-06T11:41:10.489Z</time>
      </trkpt>
      <trkpt lat="47.62293" lon="7.5362">
        <ele>238.8</ele>
        <time>2025-05-06T11:41:24.063Z</time>
      </trkpt>
      <trkpt lat="47.6228" lon="7.53612">
        <ele>239.1</ele>
        <time>2025-05-06T11:41:40.171Z</time>
      </trkpt>
      <trkpt lat="47.62267" lon="7.53613">
        <ele>239.3</ele>
        <time>2025-05-06T11:41:55.053Z</time>
      </trkpt>
      <trkpt lat="47.62256" lon="7.53618">
        <ele>239.5</ele>
        <time>2025-05-06T11:42:07.926Z</time>
      </trkpt>
      <trkpt lat="47.62235" lon="7.53619">
        <ele>240.5</ele>
        <time>2025-05-06T11:42:31.874Z</time>
      </trkpt>
      <trkpt lat="47.6222" lon="7.53625">
        <ele>241.5</ele>
        <time>2025-05-06T11:42:49.763Z</time>
      </trkpt>
      <trkpt lat="47.62201" lon="7.53632">
        <ele>242.7</ele>
        <time>2025-05-06T11:43:12.057Z</time>
      </trkpt>
      <trkpt lat="47.62186" lon="7.53643">
        <ele>243.7</ele>
        <time>2025-05-06T11:43:32.094Z</time>
      </trkpt>
      <trkpt lat="47.62174" lon="7.53644">
        <ele>244.5</ele>
        <time>2025-05-06T11:43:45.410Z</time>
      </trkpt>
      <trkpt lat="47.62165" lon="7.53662">
        <ele>245</ele>
        <time>2025-05-06T11:44:02.683Z</time>
      </trkpt>
      <trkpt lat="47.62153" lon="7.53669">
        <ele>245.1</ele>
        <time>2025-05-06T11:44:17.417Z</time>
      </trkpt>
      <trkpt lat="47.62139" lon="7.5368">
        <ele>244.8</ele>
        <time>2025-05-06T11:44:35.552Z</time>
      </trkpt>
      <trkpt lat="47.62129" lon="7.53701">
        <ele>244.2</ele>
        <time>2025-05-06T11:44:55.381Z</time>
      </trkpt>
      <trkpt lat="47.62113" lon="7.53719">
        <ele>244</ele>
        <time>2025-05-06T11:45:18.359Z</time>
      </trkpt>
      <trkpt lat="47.62093" lon="7.53738">
        <ele>244</ele>
        <time>2025-05-06T11:45:45.518Z</time>
      </trkpt>
      <trkpt lat="47.62071" lon="7.5373">
        <ele>244.2</ele>
        <time>2025-05-06T11:46:11.232Z</time>
      </trkpt>
      <trkpt lat="47.6206" lon="7.53738">
        <ele>243.7</ele>
        <time>2025-05-06T11:46:26.073Z</time>
      </trkpt>
      <trkpt lat="47.62058" lon="7.53759">
        <ele>243.1</ele>
        <time>2025-05-06T11:46:42.070Z</time>
      </trkpt>
      <trkpt lat="47.62052" lon="7.5378">
        <ele>242.4</ele>
        <time>2025-05-06T11:46:59.660Z</time>
      </trkpt>
      <trkpt lat="47.62046" lon="7.53804">
        <ele>241.8</ele>
        <time>2025-05-06T11:47:19.411Z</time>
      </trkpt>
      <trkpt lat="47.62041" lon="7.53834">
        <ele>241</ele>
        <time>2025-05-06T11:47:43.252Z</time>
      </trkpt>
      <trkpt lat="47.62043" lon="7.53861">
        <ele>240.5</ele>
        <time>2025-05-06T11:48:04.190Z</time>
      </trkpt>
      <trkpt lat="47.6204" lon="7.53889">
        <ele>240</ele>
        <time>2025-05-06T11:48:26.061Z</time>
      </trkpt>
      <trkpt lat="47.62033" lon="7.53921">
        <ele>239.5</ele>
        <time>2025-05-06T11:48:51.996Z</time>
      </trkpt>
      <trkpt lat="47.62036" lon="7.53962">
        <ele>237.9</ele>
        <time>2025-05-06T11:49:23.832Z</time>
      </trkpt>
      <trkpt lat="47.62032" lon="7.53982">
        <ele>237.1</ele>
        <time>2025-05-06T11:49:39.932Z</time>
      </trkpt>
      <trkpt lat="47.62017" lon="7.53995">
        <ele>236.4</ele>
        <time>2025-05-06T11:49:59.819Z</time>
      </trkpt>
      <trkpt lat="47.62004" lon="7.54025">
        <ele>236.1</ele>
        <time>2025-05-06T11:50:27.316Z</time>
      </trkpt>
      <trkpt lat="47.62001" lon="7.54086">
        <ele>236</ele>
        <time>2025-05-06T11:51:14.469Z</time>
      </trkpt>
      <trkpt lat="47.61991" lon="7.54148">
        <ele>236.3</ele>
        <time>2025-05-06T11:52:03.621Z</time>
      </trkpt>
      <trkpt lat="47.6197" lon="7.54186">
        <ele>236.9</ele>
        <time>2025-05-06T11:52:41.504Z</time>
      </trkpt>
      <trkpt lat="47.61944" lon="7.54216">
        <ele>237.2</ele>
        <time>2025-05-06T11:53:19.181Z</time>
      </trkpt>
      <trkpt lat="47.61947" lon="7.54267">
        <ele>236.9</ele>
        <time>2025-05-06T11:53:58.645Z</time>
      </trkpt>
      <trkpt lat="47.61936" lon="7.54329">
        <ele>237.9</ele>
        <time>2025-05-06T11:54:48.088Z</time>
      </trkpt>
      <trkpt lat="47.61931" lon="7.5437">
        <ele>238.4</ele>
        <time>2025-05-06T11:55:20.202Z</time>
      </trkpt>
      <trkpt lat="47.61936" lon="7.54396">
        <ele>238.6</ele>
        <time>2025-05-06T11:55:41.045Z</time>
      </trkpt>
      <trkpt lat="47.6192" lon="7.54449">
        <ele>239</ele>
        <time>2025-05-06T11:56:25.819Z</time>
      </trkpt>
      <trkpt lat="47.61908" lon="7.54452">
        <ele>239.2</ele>
        <time>2025-05-06T11:56:39.743Z</time>
      </trkpt>
      <trkpt lat="47.61886" lon="7.54447">
        <ele>239.8</ele>
        <time>2025-05-06T11:57:05.216Z</time>
      </trkpt>
      <trkpt lat="47.61855" lon="7.54417">
        <ele>239.7</ele>
        <time>2025-05-06T11:57:47.548Z</time>
      </trkpt>
      <trkpt lat="47.61829" lon="7.54379">
        <ele>239</ele>
        <time>2025-05-06T11:58:29.300Z</time>
      </trkpt>
      <trkpt lat="47.61804" lon="7.54346">
        <ele>237.8</ele>
        <time>2025-05-06T11:59:07.583Z</time>
      </trkpt>
      <trkpt lat="47.61779" lon="7.54313">
        <ele>237.6</ele>
        <time>2025-05-06T11:59:45.856Z</time>
      </trkpt>
      <trkpt lat="47.61756" lon="7.54298">
        <ele>237.5</ele>
        <time>2025-05-06T12:00:14.593Z</time>
      </trkpt>
      <trkpt lat="47.61731" lon="7.54295">
        <ele>237.6</ele>
        <time>2025-05-06T12:00:43.292Z</time>
      </trkpt>
      <trkpt lat="47.61709" lon="7.54273">
        <ele>237.9</ele>
        <time>2025-05-06T12:01:13.630Z</time>
      </trkpt>
      <trkpt lat="47.61687" lon="7.54269">
        <ele>237.9</ele>
        <time>2025-05-06T12:01:38.974Z</time>
      </trkpt>
      <trkpt lat="47.61654" lon="7.54265">
        <ele>238</ele>
        <time>2025-05-06T12:02:16.851Z</time>
      </trkpt>
      <trkpt lat="47.61614" lon="7.5422">
        <ele>237.5</ele>
        <time>2025-05-06T12:03:14.273Z</time>
      </trkpt>
      <trkpt lat="47.61576" lon="7.54177">
        <ele>236.4</ele>
        <time>2025-05-06T12:04:08.951Z</time>
      </trkpt>
      <trkpt lat="47.61525" lon="7.54121">
        <ele>238.3</ele>
        <time>2025-05-06T12:05:21.540Z</time>
      </trkpt>
      <trkpt lat="47.61486" lon="7.54076">
        <ele>239.8</ele>
        <time>2025-05-06T12:06:18.076Z</time>
      </trkpt>
      <trkpt lat="47.61431" lon="7.54011">
        <ele>239.2</ele>
        <time>2025-05-06T12:07:38.497Z</time>
      </trkpt>
      <trkpt lat="47.61382" lon="7.5396">
        <ele>238</ele>
        <time>2025-05-06T12:08:46.967Z</time>
      </trkpt>
      <trkpt lat="47.6135" lon="7.5392">
        <ele>237.1</ele>
        <time>2025-05-06T12:09:34.839Z</time>
      </trkpt>
      <trkpt lat="47.61322" lon="7.53884">
        <ele>237.5</ele>
        <time>2025-05-06T12:10:17.235Z</time>
      </trkpt>
      <trkpt lat="47.61323" lon="7.5384">
        <ele>237.7</ele>
        <time>2025-05-06T12:10:50.941Z</time>
      </trkpt>
      <trkpt lat="47.61341" lon="7.53815">
        <ele>237.6</ele>
        <time>2025-05-06T12:11:19.655Z</time>
      </trkpt>
      <trkpt lat="47.61344" lon="7.53793">
        <ele>238.3</ele>
        <time>2025-05-06T12:11:36.666Z</time>
      </trkpt>
      <trkpt lat="47.61343" lon="7.53767">
        <ele>239.1</ele>
        <time>2025-05-06T12:11:56.652Z</time>
      </trkpt>
      <trkpt lat="47.61379" lon="7.53723">
        <ele>240.4</ele>
        <time>2025-05-06T12:12:50.265Z</time>
      </trkpt>
      <trkpt lat="47.61424" lon="7.5366">
        <ele>241.8</ele>
        <time>2025-05-06T12:14:01.042Z</time>
      </trkpt>
      <trkpt lat="47.61472" lon="7.53606">
        <ele>246.2</ele>
        <time>2025-05-06T12:15:10.084Z</time>
      </trkpt>
      <trkpt lat="47.61486" lon="7.53591">
        <ele>246.8</ele>
        <time>2025-05-06T12:15:29.847Z</time>
      </trkpt>
      <trkpt lat="47.61508" lon="7.53585">
        <ele>247.1</ele>
        <time>2025-05-06T12:15:55.444Z</time>
      </trkpt>
      <trkpt lat="47.61565" lon="7.53611">
        <ele>247.1</ele>
        <time>2025-05-06T12:17:03.645Z</time>
      </trkpt>
      <trkpt lat="47.61627" lon="7.53639">
        <ele>245.4</ele>
        <time>2025-05-06T12:18:17.778Z</time>
      </trkpt>
      <trkpt lat="47.61675" lon="7.53661">
        <ele>244.9</ele>
        <time>2025-05-06T12:19:15.254Z</time>
      </trkpt>
      <trkpt lat="47.61701" lon="7.53676">
        <ele>245.1</ele>
        <time>2025-05-06T12:19:46.729Z</time>
      </trkpt>
      <trkpt lat="47.61763" lon="7.53671">
        <ele>245.3</ele>
        <time>2025-05-06T12:20:57.939Z</time>
      </trkpt>
      <trkpt lat="47.6184" lon="7.53665">
        <ele>243</ele>
        <time>2025-05-06T12:22:25.732Z</time>
      </trkpt>
      <trkpt lat="47.61895" lon="7.53651">
        <ele>242.4</ele>
        <time>2025-05-06T12:23:30.096Z</time>
      </trkpt>
      <trkpt lat="47.6192" lon="7.53648">
        <ele>242</ele>
        <time>2025-05-06T12:23:58.797Z</time>
      </trkpt>
      <trkpt lat="47.61945" lon="7.53643">
        <ele>242.3</ele>
        <time>2025-05-06T12:24:27.719Z</time>
      </trkpt>
      <trkpt lat="47.61978" lon="7.53618">
        <ele>242.7</ele>
        <time>2025-05-06T12:25:10.644Z</time>
      </trkpt>
      <trkpt lat="47.62012" lon="7.53581">
        <ele>242.9</ele>
        <time>2025-05-06T12:25:58.374Z</time>
      </trkpt>
      <trkpt lat="47.62048" lon="7.53568">
        <ele>242.5</ele>
        <time>2025-05-06T12:26:40.744Z</time>
      </trkpt>
      <trkpt lat="47.62078" lon="7.53559">
        <ele>242.4</ele>
        <time>2025-05-06T12:27:15.390Z</time>
      </trkpt>
      <trkpt lat="47.62089" lon="7.53567">
        <ele>242.7</ele>
        <time>2025-05-06T12:27:29.871Z</time>
      </trkpt>
      <trkpt lat="47.62101" lon="7.53568">
        <ele>243</ele>
        <time>2025-05-06T12:27:43.054Z</time>
      </trkpt>
      <trkpt lat="47.62115" lon="7.53572">
        <ele>243.5</ele>
        <time>2025-05-06T12:27:59.973Z</time>
      </trkpt>
      <trkpt lat="47.6212" lon="7.53568">
        <ele>243.5</ele>
        <time>2025-05-06T12:28:06.682Z</time>
      </trkpt>
      <trkpt lat="47.62132" lon="7.53555">
        <ele>243.5</ele>
        <time>2025-05-06T12:28:23.167Z</time>
      </trkpt>
      <trkpt lat="47.62149" lon="7.53552">
        <ele>243.8</ele>
        <time>2025-05-06T12:28:42.425Z</time>
      </trkpt>
      <trkpt lat="47.62161" lon="7.53542">
        <ele>243.9</ele>
        <time>2025-05-06T12:28:58.364Z</time>
      </trkpt>
      <trkpt lat="47.62167" lon="7.5353">
        <ele>243.7</ele>
        <time>2025-05-06T12:29:09.625Z</time>
      </trkpt>
      <trkpt lat="47.6217" lon="7.5352">
        <ele>243.4</ele>
        <time>2025-05-06T12:29:18.850Z</time>
      </trkpt>
      <trkpt lat="47.6218" lon="7.53511">
        <ele>242.9</ele>
        <time>2025-05-06T12:29:32.171Z</time>
      </trkpt>
      <trkpt lat="47.622" lon="7.53504">
        <ele>242.2</ele>
        <time>2025-05-06T12:29:55.217Z</time>
      </trkpt>
      <trkpt lat="47.622" lon="7.53474">
        <ele>241.4</ele>
        <time>2025-05-06T12:30:18.353Z</time>
      </trkpt>
      <trkpt lat="47.62199" lon="7.53468">
        <ele>241.2</ele>
        <time>2025-05-06T12:30:23.119Z</time>
      </trkpt>
      <trkpt lat="47.62192" lon="7.53458">
        <ele>241</ele>
        <time>2025-05-06T12:30:34.055Z</time>
      </trkpt>
      <trkpt lat="47.62187" lon="7.53445">
        <ele>240.7</ele>
        <time>2025-05-06T12:30:46.008Z</time>
      </trkpt>
      <trkpt lat="47.62192" lon="7.53448">
        <ele>240.7</ele>
        <time>2025-05-06T12:30:52.632Z</time>
      </trkpt>
      <trkpt lat="47.62198" lon="7.53456">
        <ele>240.8</ele>
        <time>2025-05-06T12:31:02.260Z</time>
      </trkpt>
      <trkpt lat="47.622" lon="7.53463">
        <ele>241</ele>
        <time>2025-05-06T12:31:07.928Z</time>
      </trkpt>
      <trkpt lat="47.62203" lon="7.53468">
        <ele>241.1</ele>
        <time>2025-05-06T12:31:13.243Z</time>
      </trkpt>
      <trkpt lat="47.6221" lon="7.53474">
        <ele>241.2</ele>
        <time>2025-05-06T12:31:22.497Z</time>
      </trkpt>
      <trkpt lat="47.6222" lon="7.53474">
        <ele>241</ele>
        <time>2025-05-06T12:31:33.926Z</time>
      </trkpt>
      <trkpt lat="47.62232" lon="7.5347">
        <ele>240.6</ele>
        <time>2025-05-06T12:31:48.002Z</time>
      </trkpt>
      <trkpt lat="47.62243" lon="7.5347">
        <ele>240.4</ele>
        <time>2025-05-06T12:32:00.581Z</time>
      </trkpt>
      <trkpt lat="47.62254" lon="7.53465">
        <ele>240.1</ele>
        <time>2025-05-06T12:32:13.739Z</time>
      </trkpt>
      <trkpt lat="47.62265" lon="7.53462">
        <ele>239.9</ele>
        <time>2025-05-06T12:32:26.548Z</time>
      </trkpt>
      <trkpt lat="47.6228" lon="7.53458">
        <ele>239.6</ele>
        <time>2025-05-06T12:32:43.967Z</time>
      </trkpt>
      <trkpt lat="47.62289" lon="7.53449">
        <ele>239.4</ele>
        <time>2025-05-06T12:32:56.416Z</time>
      </trkpt>
      <trkpt lat="47.623" lon="7.53448">
        <ele>239.3</ele>
        <time>2025-05-06T12:33:09.597Z</time>
      </trkpt>
      <trkpt lat="47.62314" lon="7.53446">
        <ele>239.2</ele>
        <time>2025-05-06T12:33:25.479Z</time>
      </trkpt>
      <trkpt lat="47.62326" lon="7.53443">
        <ele>239.1</ele>
        <time>2025-05-06T12:33:38.740Z</time>
      </trkpt>
      <trkpt lat="47.6234" lon="7.53439">
        <ele>238.8</ele>
        <time>2025-05-06T12:33:54.868Z</time>
      </trkpt>
      <trkpt lat="47.62347" lon="7.53436">
        <ele>238.5</ele>
        <time>2025-05-06T12:34:03.461Z</time>
      </trkpt>
      <trkpt lat="47.62358" lon="7.53425">
        <ele>238.1</ele>
        <time>2025-05-06T12:34:18.409Z</time>
      </trkpt>
      <trkpt lat="47.62367" lon="7.53424">
        <ele>237.7</ele>
        <time>2025-05-06T12:34:29.205Z</time>
      </trkpt>
      <trkpt lat="47.62379" lon="7.53422">
        <ele>237.3</ele>
        <time>2025-05-06T12:34:42.464Z</time>
      </trkpt>
      <trkpt lat="47.62383" lon="7.53412">
        <ele>237.3</ele>
        <time>2025-05-06T12:34:51.487Z</time>
      </trkpt>
      <trkpt lat="47.62391" lon="7.534">
        <ele>237.1</ele>
        <time>2025-05-06T12:35:04.679Z</time>
      </trkpt>
      <trkpt lat="47.62396" lon="7.53424">
        <ele>236.7</ele>
        <time>2025-05-06T12:35:24.039Z</time>
      </trkpt>
      <trkpt lat="47.62403" lon="7.53414">
        <ele>236.5</ele>
        <time>2025-05-06T12:35:35.156Z</time>
      </trkpt>
      <trkpt lat="47.62418" lon="7.53402">
        <ele>236.3</ele>
        <time>2025-05-06T12:35:54.635Z</time>
      </trkpt>
      <trkpt lat="47.62436" lon="7.53394">
        <ele>236.2</ele>
        <time>2025-05-06T12:36:16.131Z</time>
      </trkpt>
      <trkpt lat="47.62468" lon="7.53362">
        <ele>236.5</ele>
        <time>2025-05-06T12:37:00.270Z</time>
      </trkpt>
      <trkpt lat="47.62478" lon="7.53362">
        <ele>236.3</ele>
        <time>2025-05-06T12:37:11.718Z</time>
      </trkpt>
      <trkpt lat="47.62482" lon="7.53355">
        <ele>236.5</ele>
        <time>2025-05-06T12:37:18.792Z</time>
      </trkpt>
      <trkpt lat="47.62488" lon="7.5333">
        <ele>237.2</ele>
        <time>2025-05-06T12:37:39.259Z</time>
      </trkpt>
      <trkpt lat="47.62496" lon="7.53313">
        <ele>237.6</ele>
        <time>2025-05-06T12:37:55.242Z</time>
      </trkpt>
      <trkpt lat="47.6251" lon="7.53288">
        <ele>238</ele>
        <time>2025-05-06T12:38:20.489Z</time>
      </trkpt>
      <trkpt lat="47.62532" lon="7.53249">
        <ele>238.3</ele>
        <time>2025-05-06T12:38:59.307Z</time>
      </trkpt>
      <trkpt lat="47.62551" lon="7.53246">
        <ele>237.8</ele>
        <time>2025-05-06T12:39:21.860Z</time>
      </trkpt>
      <trkpt lat="47.62578" lon="7.53235">
        <ele>237.3</ele>
        <time>2025-05-06T12:39:53.500Z</time>
      </trkpt>
      <trkpt lat="47.62594" lon="7.53212">
        <ele>237.2</ele>
        <time>2025-05-06T12:40:19.219Z</time>
      </trkpt>
      <trkpt lat="47.62606" lon="7.5322">
        <ele>236.7</ele>
        <time>2025-05-06T12:40:34.781Z</time>
      </trkpt>
      <trkpt lat="47.62623" lon="7.5323">
        <ele>236.2</ele>
        <time>2025-05-06T12:40:55.327Z</time>
      </trkpt>
      <trkpt lat="47.62635" lon="7.53249">
        <ele>235.8</ele>
        <time>2025-05-06T12:41:15.069Z</time>
      </trkpt>
      <trkpt lat="47.62659" lon="7.53276">
        <ele>235.2</ele>
        <time>2025-05-06T12:41:49.944Z</time>
      </trkpt>
      <trkpt lat="47.6268" lon="7.53304">
        <ele>235.1</ele>
        <time>2025-05-06T12:42:22.223Z</time>
      </trkpt>
      <trkpt lat="47.62694" lon="7.53312">
        <ele>235.1</ele>
        <time>2025-05-06T12:42:39.378Z</time>
      </trkpt>
      <trkpt lat="47.62726" lon="7.53303">
        <ele>235.3</ele>
        <time>2025-05-06T12:43:17.000Z</time>
      </trkpt>
      <trkpt lat="47.62764" lon="7.53284">
        <ele>235.7</ele>
        <time>2025-05-06T12:44:02.490Z</time>
      </trkpt>
      <trkpt lat="47.62834" lon="7.53244">
        <ele>236</ele>
        <time>2025-05-06T12:45:28.289Z</time>
      </trkpt>
      <trkpt lat="47.62895" lon="7.53207">
        <ele>235.6</ele>
        <time>2025-05-06T12:46:43.664Z</time>
      </trkpt>
      <trkpt lat="47.62945" lon="7.53187">
        <ele>235.5</ele>
        <time>2025-05-06T12:47:42.880Z</time>
      </trkpt>
      <trkpt lat="47.62992" lon="7.53179">
        <ele>235.9</ele>
        <time>2025-05-06T12:48:36.997Z</time>
      </trkpt>
      <trkpt lat="47.63024" lon="7.53172">
        <ele>236.3</ele>
        <time>2025-05-06T12:49:13.437Z</time>
      </trkpt>
      <trkpt lat="47.63054" lon="7.53179">
        <ele>236.6</ele>
        <time>2025-05-06T12:49:48.740Z</time>
      </trkpt>
      <trkpt lat="47.63113" lon="7.53192">
        <ele>236.8</ele>
        <time>2025-05-06T12:50:56.970Z</time>
      </trkpt>
      <trkpt lat="47.63168" lon="7.53189">
        <ele>237</ele>
        <time>2025-05-06T12:51:59.920Z</time>
      </trkpt>
      <trkpt lat="47.63212" lon="7.53191">
        <ele>236.2</ele>
        <time>2025-05-06T12:52:50.259Z</time>
      </trkpt>
      <trkpt lat="47.63268" lon="7.53195">
        <ele>236</ele>
        <time>2025-05-06T12:53:54.391Z</time>
      </trkpt>
      <trkpt lat="47.63314" lon="7.53208">
        <ele>237.1</ele>
        <time>2025-05-06T12:54:47.959Z</time>
      </trkpt>
      <trkpt lat="47.63344" lon="7.53222">
        <ele>237.5</ele>
        <time>2025-05-06T12:55:23.918Z</time>
      </trkpt>
      <trkpt lat="47.63382" lon="7.53207">
        <ele>236.9</ele>
        <time>2025-05-06T12:56:08.896Z</time>
      </trkpt>
      <trkpt lat="47.63435" lon="7.53156">
        <ele>236.5</ele>
        <time>2025-05-06T12:57:21.142Z</time>
      </trkpt>
      <trkpt lat="47.63479" lon="7.53112">
        <ele>236.3</ele>
        <time>2025-05-06T12:58:21.834Z</time>
      </trkpt>
      <trkpt lat="47.63514" lon="7.53073">
        <ele>236.9</ele>
        <time>2025-05-06T12:59:11.888Z</time>
      </trkpt>
      <trkpt lat="47.63554" lon="7.53038">
        <ele>236.8</ele>
        <time>2025-05-06T13:00:04.996Z</time>
      </trkpt>
      <trkpt lat="47.63575" lon="7.53014">
        <ele>236.9</ele>
        <time>2025-05-06T13:00:35.311Z</time>
      </trkpt>
      <trkpt lat="47.63613" lon="7.52986">
        <ele>236.3</ele>
        <time>2025-05-06T13:01:23.840Z</time>
      </trkpt>
      <trkpt lat="47.63643" lon="7.5296">
        <ele>235.9</ele>
        <time>2025-05-06T13:02:03.584Z</time>
      </trkpt>
      <trkpt lat="47.63666" lon="7.52942">
        <ele>236</ele>
        <time>2025-05-06T13:02:33.325Z</time>
      </trkpt>
      <trkpt lat="47.63689" lon="7.52921">
        <ele>236.5</ele>
        <time>2025-05-06T13:03:04.217Z</time>
      </trkpt>
      <trkpt lat="47.6371" lon="7.52912">
        <ele>237</ele>
        <time>2025-05-06T13:03:29.210Z</time>
      </trkpt>
    </trkseg>
  </trk>
</gpx>